Terminal Aerodrome Forecast
Issued by NWS Caribou, ME

Home | Current Version | Previous Version | Text Only | Print | Product List | Glossary On
Versions: 1 2 3 4 5 6 7 8 9 10 11 12 13
615
FTUS41 KCAR 262332
TAFCAR
TAF
KCAR 262332Z 2700/2724 VRB03KT P6SM BKN200
     FM271000 VRB03KT 6SM -RA OVC040
     FM271600 04006KT P6SM VCSH OVC025
     FM272000 07006KT P6SM VCSH OVC015=

USA.gov is the U.S. government's official web portal to all federal, state and local government web resources and services.